Time;durP1;ratioP1;P1;durP2;ratioP2;P2;SDS_P1;SDS_P2;PMS_P1;PMS_P2;Temp;Humidity;BMP_temperature;BMP_pressure;BME280_temperature;BME280_humidity;BME280_pressure;Samples;Min_cycle;Max_cycle;Signal;HPM_P1;HPM_P2
2023/05/24 13:15:12;;;;;;;;;;;30.70;48.10;;;;;;5823387;22;10977365;-96
2023/05/24 13:18:12;;;;;;;;;;;;;;;;;;;;;
2023/05/24 13:37:30;;;;;;;;;;;33.10;40.80;;;;;;6219263;23;20243;-96
2023/05/24 13:40:04;;;;;;;;;;;32.40;41.90;;;;;;6195215;23;19940;-96
2023/05/24 13:42:35;;;;;;;;;;;33.50;41.50;;;;;;6222214;23;19893;-97
2023/05/24 13:45:04;;;;;;;;;;;33.80;39.50;;;;;;6136202;23;19909;-97
2023/05/24 13:47:41;;;;;;;;;;;33.70;39.90;;;;;;6125309;23;20275;-96
2023/05/24 13:50:14;;;;;;;;;;;34.10;40.60;;;;;;6106407;23;19957;-96
2023/05/24 13:52:42;;;;;;;;;;;34.00;40.00;;;;;;6129402;23;19954;-96
2023/05/24 13:55:12;;;;;;;;;;;33.50;41.40;;;;;;6105108;23;19909;-96
2023/05/24 13:57:38;;;;;;;;;;;32.70;42.10;;;;;;6103382;23;20443;-96
2023/05/24 14:00:07;;;;;;;;;;;32.20;44.00;;;;;;6103189;23;19925;-96
2023/05/24 14:02:35;;;;;;;;;;;31.70;44.10;;;;;;6102202;23;19905;-96
2023/05/24 14:05:02;;;;;;;;;;;30.50;46.30;;;;;;6101996;23;19905;-96
2023/05/24 14:07:36;;;;;;;;;;;30.50;45.60;;;;;;6101366;23;19956;-96
2023/05/24 14:10:05;;;;;;;;;;;30.70;45.10;;;;;;6104156;23;19916;-96
2023/05/24 14:12:33;;;;;;;;;;;31.20;45.70;;;;;;6103838;23;19920;-97
2023/05/24 14:15:00;;;;;;;;;;;31.70;44.30;;;;;;6099073;23;19913;-96
2023/05/24 14:17:27;;;;;;;;;;;32.10;44.00;;;;;;6099222;23;19925;-96
2023/05/24 14:19:55;;;;;;;;;;;32.10;43.20;;;;;;6097081;23;19890;-96
2023/05/24 14:27:39;;;;;;;;;;;31.90;41.50;;;;;;6155404;23;19920;-96
2023/05/24 14:30:07;;;;;;;;;;;31.80;42.10;;;;;;6217129;23;19908;-96
2023/05/24 14:32:34;;;;;;;;;;;32.00;44.10;;;;;;6215433;23;19912;-96
2023/05/24 14:35:01;;;;;;;;;;;32.30;43.40;;;;;;6191965;23;19931;-96
2023/05/24 14:37:28;;;;;;;;;;;32.40;44.70;;;;;;6243766;23;20000;-97
2023/05/24 14:40:00;;;;;;;;;;;32.70;43.00;;;;;;6207660;23;19904;-96
2023/05/24 14:42:29;;;;;;;;;;;33.00;41.10;;;;;;6217820;23;19888;-96
2023/05/24 14:45:03;;;;;;;;;;;33.20;40.10;;;;;;6193265;23;19930;-97
2023/05/24 14:47:31;;;;;;;;;;;33.20;38.70;;;;;;6187176;23;19904;-96
2023/05/24 14:50:00;;;;;;;;;;;33.50;38.60;;;;;;6186729;23;19924;-97
2023/05/24 14:52:44;;;;;;;;;;;33.70;39.80;;;;;;6186373;23;19916;-96
2023/05/24 14:55:14;;;;;;;;;;;33.70;38.60;;;;;;6188091;23;20311;-96
2023/05/24 14:57:41;;;;;;;;;;;33.70;38.50;;;;;;6212473;23;19904;-96
2023/05/24 15:00:19;;;;;;;;;;;33.70;38.20;;;;;;6212753;23;19915;-96
2023/05/24 15:02:48;;;;;;;;;;;33.70;39.80;;;;;;6180523;23;19915;-96
2023/05/24 15:14:31;;;;;;;;;;;33.20;37.80;;;;;;6137191;23;19960;-96
2023/05/24 15:16:57;;;;;;;;;;;33.20;36.90;;;;;;6188863;23;19940;-96
2023/05/24 15:19:23;;;;;;;;;;;33.30;37.20;;;;;;6218202;23;19958;-96
2023/05/24 15:21:48;;;;;;;;;;;33.30;38.90;;;;;;6217437;23;19904;-96
2023/05/24 15:24:14;;;;;;;;;;;33.20;38.40;;;;;;6217607;23;19954;-96
2023/05/24 15:26:39;;;;;;;;;;;32.90;37.60;;;;;;6217323;23;19903;-96
2023/05/24 15:29:05;;;;;;;;;;;32.90;38.70;;;;;;6215953;23;19904;-96
2023/05/24 15:31:31;;;;;;;;;;;32.70;38.10;;;;;;6216817;23;19928;-96
2023/05/24 15:33:56;;;;;;;;;;;32.60;39.20;;;;;;6191607;23;19908;-96
2023/05/24 15:36:22;;;;;;;;;;;32.50;41.30;;;;;;6187164;23;19905;-96
2023/05/24 15:38:50;;;;;;;;;;;32.40;41.20;;;;;;6186990;23;19909;-96
2023/05/24 15:41:16;;;;;;;;;;;32.30;42.80;;;;;;6185289;23;19975;-96
2023/05/24 15:43:41;;;;;;;;;;;32.00;41.50;;;;;;6185386;23;19933;-96
2023/05/24 15:46:07;;;;;;;;;;;31.80;42.30;;;;;;6187341;23;19905;-96
2023/05/24 15:48:32;;;;;;;;;;;31.50;42.50;;;;;;6187431;23;19904;-96
2023/05/24 15:50:58;;;;;;;;;;;31.20;43.60;;;;;;6185544;23;19914;-96
2023/05/24 15:53:24;;;;;;;;;;;30.90;44.20;;;;;;6187067;23;20274;-96
2023/05/24 15:55:50;;;;;;;;;;;30.90;46.00;;;;;;6186810;23;19959;-96
2023/05/24 15:58:15;;;;;;;;;;;30.70;45.70;;;;;;6185450;23;19905;-96
2023/05/24 16:00:41;;;;;;;;;;;30.60;45.60;;;;;;6186708;23;19979;-96
2023/05/24 16:03:07;;;;;;;;;;;30.40;45.70;;;;;;6192977;23;19979;-96
2023/05/24 16:05:33;;;;;;;;;;;30.00;46.00;;;;;;6195821;23;20519;-96
2023/05/24 16:08:01;;;;;;;;;;;29.70;47.10;;;;;;6199658;23;19904;-96
2023/05/24 16:10:26;;;;;;;;;;;29.40;48.20;;;;;;6192409;23;19912;-95
2023/05/24 16:12:52;;;;;;;;;;;29.20;48.50;;;;;;6186892;23;19908;-96
2023/05/24 16:15:18;;;;;;;;;;;28.90;48.20;;;;;;6187372;23;20279;-96
2023/05/24 16:17:43;;;;;;;;;;;28.70;49.00;;;;;;6185476;23;20227;-96
2023/05/24 16:20:09;;;;;;;;;;;28.40;49.80;;;;;;6186639;23;19987;-96
2023/05/24 16:22:35;;;;;;;;;;;28.20;50.00;;;;;;6185403;23;19904;-96
2023/05/24 16:25:01;;;;;;;;;;;28.00;50.20;;;;;;6195649;23;20282;-96
2023/05/24 16:27:26;;;;;;;;;;;27.80;50.80;;;;;;6199118;23;19948;-96
2023/05/24 16:29:52;;;;;;;;;;;27.80;51.60;;;;;;6198326;23;19958;-96
2023/05/24 16:32:18;;;;;;;;;;;27.80;51.60;;;;;;6198940;23;19930;-96
2023/05/24 16:34:44;;;;;;;;;;;27.90;51.60;;;;;;6200680;23;20222;-96
2023/05/24 16:37:10;;;;;;;;;;;28.00;52.20;;;;;;6200524;23;19911;-96
2023/05/24 16:39:37;;;;;;;;;;;28.00;52.60;;;;;;6198727;23;19935;-96
2023/05/24 16:42:03;;;;;;;;;;;27.90;51.10;;;;;;6196245;23;19958;-96
2023/05/24 16:44:28;;;;;;;;;;;27.60;51.00;;;;;;6197407;23;19939;-96
2023/05/24 16:46:54;;;;;;;;;;;27.50;51.40;;;;;;6195871;23;20338;-96
2023/05/24 16:49:20;;;;;;;;;;;27.20;52.50;;;;;;6194368;23;19904;-96
2023/05/24 16:51:45;;;;;;;;;;;27.20;51.60;;;;;;6193955;23;20242;-96
2023/05/24 16:54:11;;;;;;;;;;;27.10;52.60;;;;;;6194879;23;19908;-96
2023/05/24 16:56:37;;;;;;;;;;;27.00;52.00;;;;;;6195934;23;19904;-96
2023/05/24 16:59:03;;;;;;;;;;;26.80;53.00;;;;;;6196203;23;19905;-96
2023/05/24 17:01:29;;;;;;;;;;;26.70;52.60;;;;;;6196505;23;19916;-96
2023/05/24 17:03:54;;;;;;;;;;;26.50;53.10;;;;;;6195555;23;19904;-96
2023/05/24 17:06:20;;;;;;;;;;;26.50;52.90;;;;;;6196354;23;19948;-96
2023/05/24 17:08:46;;;;;;;;;;;26.30;53.00;;;;;;6197502;23;19905;-96
2023/05/24 17:11:14;;;;;;;;;;;26.20;53.60;;;;;;6196347;23;19904;-96
2023/05/24 17:13:40;;;;;;;;;;;26.00;53.60;;;;;;6196213;23;19909;-96
2023/05/24 17:16:06;;;;;;;;;;;25.80;54.50;;;;;;6196669;23;19911;-96
2023/05/24 17:18:32;;;;;;;;;;;25.80;54.20;;;;;;6195703;23;19920;-96
2023/05/24 17:21:04;;;;;;;;;;;25.50;54.90;;;;;;6194962;23;19936;-96
2023/05/24 17:23:31;;;;;;;;;;;25.30;55.20;;;;;;6197330;23;20234;-96
2023/05/24 17:25:57;;;;;;;;;;;25.20;55.00;;;;;;6195436;23;19911;-96
2023/05/24 17:28:26;;;;;;;;;;;25.10;55.40;;;;;;6195207;23;19905;-96
2023/05/24 17:30:52;;;;;;;;;;;25.00;56.00;;;;;;6195537;23;19904;-96
2023/05/24 17:33:18;;;;;;;;;;;24.80;56.20;;;;;;6195074;23;20247;-96
2023/05/24 17:35:44;;;;;;;;;;;24.70;56.80;;;;;;6196984;23;19911;-96
2023/05/24 17:38:09;;;;;;;;;;;24.70;56.90;;;;;;6194161;23;19904;-96
2023/05/24 17:40:35;;;;;;;;;;;24.60;57.60;;;;;;6189408;23;19979;-96
2023/05/24 17:43:01;;;;;;;;;;;24.50;57.50;;;;;;6191142;23;20281;-96
2023/05/24 17:45:27;;;;;;;;;;;24.50;58.60;;;;;;6189652;23;20378;-96
2023/05/24 17:47:53;;;;;;;;;;;24.40;58.60;;;;;;6196080;23;19969;-96
2023/05/24 17:50:18;;;;;;;;;;;24.30;58.80;;;;;;6197372;23;19908;-96
2023/05/24 17:52:44;;;;;;;;;;;24.30;59.40;;;;;;6195387;23;19936;-96
2023/05/24 17:55:10;;;;;;;;;;;24.20;59.50;;;;;;6197132;23;19904;-96
2023/05/24 17:57:35;;;;;;;;;;;24.20;59.50;;;;;;6197838;23;19904;-96
2023/05/24 18:00:01;;;;;;;;;;;24.10;60.00;;;;;;6196478;23;19913;-95
2023/05/24 18:02:27;;;;;;;;;;;24.00;60.30;;;;;;6196508;23;19986;-96
2023/05/24 18:04:54;;;;;;;;;;;24.00;60.50;;;;;;6195233;23;19911;-96
2023/05/24 18:07:20;;;;;;;;;;;24.00;61.00;;;;;;6196377;23;19920;-96
2023/05/24 18:09:45;;;;;;;;;;;23.90;61.10;;;;;;6196010;23;19948;-96
2023/05/24 18:12:11;;;;;;;;;;;23.80;61.30;;;;;;6196984;23;19904;-96
2023/05/24 18:14:37;;;;;;;;;;;23.80;61.50;;;;;;6195515;23;19909;-96
2023/05/24 18:17:03;;;;;;;;;;;23.70;61.90;;;;;;6184988;23;19924;-96
2023/05/24 18:19:28;;;;;;;;;;;23.70;62.20;;;;;;6139119;23;20323;-96
2023/05/24 18:21:54;;;;;;;;;;;23.60;62.30;;;;;;6140874;23;19905;-97
2023/05/24 18:24:20;;;;;;;;;;;23.50;63.50;;;;;;6140793;23;19981;-96
2023/05/24 18:26:46;;;;;;;;;;;23.40;63.80;;;;;;6167001;23;19905;-96
2023/05/24 18:29:12;;;;;;;;;;;23.30;63.30;;;;;;6139668;23;19905;-96
2023/05/24 18:31:37;;;;;;;;;;;23.20;63.50;;;;;;6139234;23;19905;-96
2023/05/24 18:34:03;;;;;;;;;;;23.20;63.80;;;;;;6165314;23;19908;-96
2023/05/24 18:36:29;;;;;;;;;;;23.10;63.40;;;;;;6139005;23;19904;-96
2023/05/24 18:38:54;;;;;;;;;;;23.10;63.30;;;;;;6165410;23;19911;-96
2023/05/24 18:41:20;;;;;;;;;;;23.00;63.80;;;;;;6137822;23;19927;-96
2023/05/24 18:43:46;;;;;;;;;;;23.00;63.90;;;;;;6164561;23;19976;-96
2023/05/24 18:46:13;;;;;;;;;;;22.90;64.30;;;;;;6164971;23;19904;-96
2023/05/24 18:48:42;;;;;;;;;;;22.80;64.70;;;;;;6137821;23;19909;-96
2023/05/24 18:51:08;;;;;;;;;;;22.80;65.80;;;;;;6138390;23;19915;-96
2023/05/24 18:53:34;;;;;;;;;;;22.60;65.30;;;;;;6136477;23;20250;-96
2023/05/24 18:56:00;;;;;;;;;;;22.00;66.90;;;;;;6136058;23;20315;-96
2023/05/24 18:58:26;;;;;;;;;;;21.70;66.60;;;;;;6135529;23;19905;-96
2023/05/24 19:00:51;;;;;;;;;;;21.50;66.90;;;;;;6136580;23;19955;-96
2023/05/24 19:03:17;;;;;;;;;;;21.30;67.30;;;;;;6135861;23;19905;-96
2023/05/24 19:05:43;;;;;;;;;;;21.20;67.10;;;;;;6135951;23;19984;-96
2023/05/24 19:08:08;;;;;;;;;;;21.00;67.30;;;;;;6137175;23;19909;-96
2023/05/24 19:10:34;;;;;;;;;;;20.90;67.30;;;;;;6137919;23;19904;-96
2023/05/24 19:13:00;;;;;;;;;;;20.90;67.50;;;;;;6139059;23;19955;-96
2023/05/24 19:15:25;;;;;;;;;;;21.00;67.90;;;;;;6141220;23;19959;-96
2023/05/24 19:17:52;;;;;;;;;;;21.10;68.50;;;;;;6176389;23;19916;-96
2023/05/24 19:20:18;;;;;;;;;;;21.00;69.70;;;;;;6195396;23;19930;-96
2023/05/24 19:22:43;;;;;;;;;;;21.00;68.80;;;;;;6194353;23;19904;-96
2023/05/24 19:25:09;;;;;;;;;;;20.90;68.30;;;;;;6192863;23;19986;-96
2023/05/24 19:27:35;;;;;;;;;;;20.80;68.80;;;;;;6190992;23;19911;-96
2023/05/24 19:30:01;;;;;;;;;;;20.50;69.00;;;;;;6191307;23;19904;-96
2023/05/24 19:32:26;;;;;;;;;;;20.50;69.40;;;;;;6192895;23;20330;-96
2023/05/24 19:34:52;;;;;;;;;;;20.50;70.20;;;;;;6193180;23;19904;-96
2023/05/24 19:37:19;;;;;;;;;;;20.60;70.70;;;;;;6194418;23;19904;-96
2023/05/24 19:39:45;;;;;;;;;;;20.50;70.80;;;;;;6193765;23;19912;-96
2023/05/24 19:42:10;;;;;;;;;;;20.50;72.60;;;;;;6192446;23;20243;-96
2023/05/24 19:44:36;;;;;;;;;;;20.30;72.90;;;;;;6192104;23;19920;-96
2023/05/24 19:47:02;;;;;;;;;;;20.20;73.30;;;;;;6192492;23;19904;-96
2023/05/24 19:49:27;;;;;;;;;;;20.20;71.50;;;;;;6191208;23;19904;-96
2023/05/24 19:51:53;;;;;;;;;;;20.10;70.60;;;;;;6191392;23;19904;-96
2023/05/24 19:54:19;;;;;;;;;;;20.10;72.20;;;;;;6193129;23;19912;-96
2023/05/24 19:56:48;;;;;;;;;;;20.00;71.60;;;;;;6191342;23;19911;-96
2023/05/24 19:59:14;;;;;;;;;;;20.00;72.50;;;;;;6192264;23;20345;-96
2023/05/24 20:01:40;;;;;;;;;;;19.90;72.40;;;;;;6191315;23;19904;-96
2023/05/24 20:04:05;;;;;;;;;;;19.80;73.10;;;;;;6191268;23;19904;-96
2023/05/24 20:06:31;;;;;;;;;;;19.90;72.90;;;;;;6190777;23;19911;-96
2023/05/24 20:08:59;;;;;;;;;;;19.80;72.80;;;;;;6193443;23;20327;-96
2023/05/24 20:11:25;;;;;;;;;;;19.80;73.70;;;;;;6191035;23;19971;-96
2023/05/24 20:13:51;;;;;;;;;;;19.70;73.00;;;;;;6191631;23;19935;-96
2023/05/24 20:16:17;;;;;;;;;;;19.70;73.60;;;;;;6191095;23;19955;-96
2023/05/24 20:18:43;;;;;;;;;;;19.60;73.50;;;;;;6137971;23;19909;-96
2023/05/24 20:21:08;;;;;;;;;;;19.50;74.70;;;;;;6137810;23;19919;-96
2023/05/24 20:23:34;;;;;;;;;;;19.30;75.80;;;;;;6137532;23;19956;-96
2023/05/24 20:26:00;;;;;;;;;;;19.20;76.50;;;;;;6163795;23;19905;-96
2023/05/24 20:28:27;;;;;;;;;;;19.10;77.40;;;;;;6163348;23;19911;-96
2023/05/24 20:30:53;;;;;;;;;;;19.20;77.00;;;;;;6163172;23;19911;-96
2023/05/24 20:33:19;;;;;;;;;;;19.00;76.20;;;;;;6136270;23;19912;-96
2023/05/24 20:35:44;;;;;;;;;;;19.00;77.30;;;;;;6136162;23;19979;-96
2023/05/24 20:38:10;;;;;;;;;;;19.00;77.50;;;;;;6136484;23;19912;-96
2023/05/24 20:40:36;;;;;;;;;;;18.90;77.60;;;;;;6162479;23;19911;-96
2023/05/24 20:43:01;;;;;;;;;;;18.90;77.30;;;;;;6162796;23;20304;-96
2023/05/24 20:45:27;;;;;;;;;;;18.90;79.40;;;;;;6136874;23;19905;-96
2023/05/24 20:47:53;;;;;;;;;;;18.80;79.10;;;;;;6137175;23;19991;-96
2023/05/24 20:50:18;;;;;;;;;;;18.60;79.20;;;;;;6135648;23;19909;-96
2023/05/24 20:52:44;;;;;;;;;;;18.60;80.50;;;;;;6136128;23;19916;-96
2023/05/24 20:55:10;;;;;;;;;;;18.60;81.40;;;;;;6136529;23;19905;-96
2023/05/24 20:57:36;;;;;;;;;;;18.50;80.90;;;;;;6136244;23;19991;-96
2023/05/24 21:00:02;;;;;;;;;;;18.60;80.50;;;;;;6136040;23;19905;-96
2023/05/24 21:02:28;;;;;;;;;;;18.60;80.50;;;;;;6135876;23;20077;-96
2023/05/24 21:04:54;;;;;;;;;;;18.70;80.30;;;;;;6136742;23;19905;-96
2023/05/24 21:07:20;;;;;;;;;;;18.80;79.80;;;;;;6161732;23;19905;-96
2023/05/24 21:09:46;;;;;;;;;;;18.70;79.60;;;;;;6135313;23;20320;-96
2023/05/24 21:12:11;;;;;;;;;;;18.60;79.80;;;;;;6136176;23;19904;-96
2023/05/24 21:14:37;;;;;;;;;;;18.60;80.30;;;;;;6136016;23;20002;-96
2023/05/24 21:17:02;;;;;;;;;;;18.70;80.70;;;;;;6151464;23;19916;-96
2023/05/24 21:19:28;;;;;;;;;;;18.70;80.70;;;;;;6192198;23;19908;-96
2023/05/24 21:21:54;;;;;;;;;;;18.80;81.20;;;;;;6189334;23;19959;-96
2023/05/24 21:24:19;;;;;;;;;;;18.80;80.70;;;;;;6189811;23;19904;-96
2023/05/24 21:26:45;;;;;;;;;;;18.90;80.10;;;;;;6191822;23;19991;-96
2023/05/24 21:29:11;;;;;;;;;;;19.00;79.50;;;;;;6192579;23;19904;-96
2023/05/24 21:31:37;;;;;;;;;;;19.20;78.90;;;;;;6191357;23;19955;-96
2023/05/24 21:34:03;;;;;;;;;;;19.30;78.00;;;;;;6192479;23;20277;-96
2023/05/24 21:36:29;;;;;;;;;;;19.40;77.40;;;;;;6190795;23;20234;-96
2023/05/24 21:38:55;;;;;;;;;;;19.60;76.80;;;;;;6190603;23;19905;-96
2023/05/24 21:41:21;;;;;;;;;;;19.70;76.60;;;;;;6190217;23;19954;-96
2023/05/24 21:43:47;;;;;;;;;;;19.80;76.00;;;;;;6189504;23;19904;-96
2023/05/24 21:46:12;;;;;;;;;;;19.80;75.60;;;;;;6189917;23;19905;-96
2023/05/24 21:48:38;;;;;;;;;;;19.80;75.50;;;;;;6191651;23;19912;-96
2023/05/24 21:51:03;;;;;;;;;;;19.90;75.20;;;;;;6190156;23;20215;-96
2023/05/24 21:53:29;;;;;;;;;;;20.00;75.20;;;;;;6189603;23;20285;-96
2023/05/24 21:55:54;;;;;;;;;;;20.00;75.00;;;;;;6191967;23;19905;-96
2023/05/24 21:58:20;;;;;;;;;;;20.10;74.70;;;;;;6191818;23;20330;-96
2023/05/24 22:00:46;;;;;;;;;;;20.00;74.70;;;;;;6191963;23;19905;-96
2023/05/24 22:03:11;;;;;;;;;;;20.10;74.90;;;;;;6192377;23;19950;-96
2023/05/24 22:05:37;;;;;;;;;;;20.10;74.50;;;;;;6192388;23;20004;-96
2023/05/24 22:08:02;;;;;;;;;;;20.10;74.20;;;;;;6192207;23;20235;-96
2023/05/24 22:10:28;;;;;;;;;;;20.10;74.30;;;;;;6194477;23;19978;-96
2023/05/24 22:12:54;;;;;;;;;;;20.10;74.20;;;;;;6192171;23;20237;-96
2023/05/24 22:15:19;;;;;;;;;;;20.10;74.30;;;;;;6191884;23;20219;-96
2023/05/24 22:17:46;;;;;;;;;;;20.10;74.30;;;;;;6175312;23;19983;-96
2023/05/24 22:20:12;;;;;;;;;;;20.10;74.30;;;;;;6139139;23;19905;-96
2023/05/24 22:22:47;;;;;;;;;;;20.10;74.30;;;;;;6163967;23;19955;-96
2023/05/24 22:25:16;;;;;;;;;;;20.10;74.20;;;;;;6136481;23;19904;-96
2023/05/24 22:27:42;;;;;;;;;;;20.10;74.30;;;;;;6136549;23;19904;-96
2023/05/24 22:30:08;;;;;;;;;;;20.10;74.10;;;;;;6163580;23;19951;-96
2023/05/24 22:32:34;;;;;;;;;;;20.20;74.00;;;;;;6136615;23;19904;-96
2023/05/24 22:35:00;;;;;;;;;;;20.20;73.80;;;;;;6137696;23;19905;-96
2023/05/24 22:37:25;;;;;;;;;;;20.20;73.90;;;;;;6136206;23;19904;-96
2023/05/24 22:39:51;;;;;;;;;;;20.30;73.60;;;;;;6136558;23;20327;-96
2023/05/24 22:42:16;;;;;;;;;;;20.30;73.50;;;;;;6138247;23;19905;-96
2023/05/24 22:44:42;;;;;;;;;;;20.30;73.60;;;;;;6137198;23;20200;-96
2023/05/24 22:47:10;;;;;;;;;;;20.30;73.50;;;;;;6138551;23;20323;-96
2023/05/24 22:49:36;;;;;;;;;;;20.30;73.50;;;;;;6137309;23;19909;-96
2023/05/24 22:52:02;;;;;;;;;;;20.20;73.70;;;;;;6135685;23;19912;-96
2023/05/24 22:54:27;;;;;;;;;;;20.30;73.80;;;;;;6136517;23;20346;-96
2023/05/24 22:56:53;;;;;;;;;;;20.30;73.80;;;;;;6135624;23;19906;-96
2023/05/24 22:59:18;;;;;;;;;;;20.20;74.10;;;;;;6162369;23;19915;-96
2023/05/24 23:01:44;;;;;;;;;;;20.10;74.40;;;;;;6162072;23;20350;-96
2023/05/24 23:04:12;;;;;;;;;;;20.10;75.30;;;;;;6136597;23;19932;-96
2023/05/24 23:06:40;;;;;;;;;;;20.10;75.70;;;;;;6134940;23;19905;-96
2023/05/24 23:09:06;;;;;;;;;;;20.10;76.70;;;;;;6159410;23;19911;-96
2023/05/24 23:11:33;;;;;;;;;;;20.00;77.10;;;;;;6132027;23;19926;-96
2023/05/24 23:13:59;;;;;;;;;;;19.80;77.50;;;;;;6132079;23;20326;-96
2023/05/24 23:16:27;;;;;;;;;;;19.70;78.80;;;;;;6137814;22;19912;-96
2023/05/24 23:18:56;;;;;;;;;;;19.60;80.80;;;;;;6246644;23;19911;-96
2023/05/24 23:21:23;;;;;;;;;;;19.50;81.80;;;;;;6248219;22;19904;-96
2023/05/24 23:23:49;;;;;;;;;;;19.40;83.30;;;;;;6246249;23;19904;-96
2023/05/24 23:26:15;;;;;;;;;;;19.30;83.50;;;;;;6248032;22;19904;-96
2023/05/24 23:28:41;;;;;;;;;;;19.30;83.00;;;;;;6246014;23;19910;-96
2023/05/24 23:31:07;;;;;;;;;;;19.10;84.40;;;;;;6246109;23;19950;-96
2023/05/24 23:33:32;;;;;;;;;;;19.00;86.60;;;;;;6226600;23;19916;-96
2023/05/24 23:35:58;;;;;;;;;;;18.90;87.30;;;;;;6215508;23;19936;-96
2023/05/24 23:38:24;;;;;;;;;;;18.80;87.40;;;;;;6217581;23;19904;-96
2023/05/24 23:40:49;;;;;;;;;;;18.70;87.40;;;;;;6217090;23;19908;-96
2023/05/24 23:43:15;;;;;;;;;;;18.70;87.60;;;;;;6215476;23;19930;-96
2023/05/24 23:45:40;;;;;;;;;;;18.70;87.50;;;;;;6217443;23;20314;-96
2023/05/24 23:48:06;;;;;;;;;;;18.70;87.80;;;;;;6216861;23;19904;-96
2023/05/24 23:50:32;;;;;;;;;;;18.60;87.30;;;;;;6217267;23;19911;-96
2023/05/24 23:52:57;;;;;;;;;;;18.60;88.10;;;;;;6216853;23;19907;-96
2023/05/24 23:55:23;;;;;;;;;;;18.60;87.70;;;;;;6215387;23;19954;-96
2023/05/24 23:57:48;;;;;;;;;;;18.60;87.80;;;;;;6215382;23;19904;-95
